createdAt,value
2022-11-26T00:01:05.599Z,2.27
2022-11-26T00:03:32.007Z,1.88
2022-11-26T00:05:58.403Z,2.12
2022-11-26T00:08:24.764Z,2.16
2022-11-26T00:10:51.099Z,2.18
2022-11-26T00:13:17.427Z,2.26
2022-11-26T00:15:43.749Z,1.84
2022-11-26T00:18:10.113Z,1.78
2022-11-26T00:20:36.483Z,1.90
2022-11-26T00:23:02.861Z,2.12
2022-11-26T00:25:29.195Z,1.98
2022-11-26T00:27:55.585Z,2.22
2022-11-26T00:30:21.984Z,2.47
2022-11-26T00:32:48.371Z,2.30
2022-11-26T00:35:14.710Z,2.25
2022-11-26T00:37:41.040Z,2.35
2022-11-26T00:40:07.370Z,2.15
2022-11-26T00:42:33.696Z,2.26
2022-11-26T00:45:00.070Z,2.45
2022-11-26T00:47:26.450Z,2.35
2022-11-26T00:49:52.775Z,2.22
2022-11-26T00:52:19.107Z,2.26
2022-11-26T00:54:45.431Z,2.52
2022-11-26T00:57:11.750Z,2.16
2022-11-26T00:59:38.077Z,2.37
2022-11-26T01:02:04.435Z,2.30
2022-11-26T01:04:30.855Z,2.32
2022-11-26T01:06:57.230Z,2.25
2022-11-26T01:09:23.606Z,2.33
2022-11-26T01:11:54.005Z,2.37
2022-11-26T01:14:20.905Z,2.37
2022-11-26T01:16:47.316Z,2.39
2022-11-26T01:19:14.237Z,2.31
2022-11-26T01:21:40.611Z,1.96
2022-11-26T01:24:06.942Z,2.32
2022-11-26T01:26:33.266Z,2.15
2022-11-26T01:28:59.628Z,1.93
2022-11-26T01:31:25.970Z,2.38
2022-11-26T01:33:52.298Z,2.36
2022-11-26T01:36:18.688Z,2.05
2022-11-26T01:38:45.062Z,1.97
2022-11-26T01:41:11.434Z,2.21
2022-11-26T01:43:37.801Z,1.90
2022-11-26T01:46:04.188Z,2.16
2022-11-26T01:48:30.578Z,2.15
2022-11-26T01:50:56.963Z,2.26
2022-11-26T01:53:23.300Z,2.27
2022-11-26T01:55:49.671Z,2.23
2022-11-26T01:58:16.008Z,2.17
2022-11-26T02:00:42.432Z,2.37
2022-11-26T02:03:08.862Z,2.79
2022-11-26T02:05:35.242Z,3.39
2022-11-26T02:08:01.577Z,2.94
2022-11-26T02:10:27.948Z,2.82
2022-11-26T02:12:54.333Z,2.45
2022-11-26T02:15:20.696Z,2.46
2022-11-26T02:17:47.075Z,2.37
2022-11-26T02:20:13.409Z,2.31
2022-11-26T02:22:39.726Z,2.50
2022-11-26T02:25:06.089Z,2.63
2022-11-26T02:27:32.415Z,2.37
2022-11-26T02:29:58.754Z,2.30
2022-11-26T02:32:25.075Z,2.39
2022-11-26T02:34:51.435Z,2.59
2022-11-26T02:37:17.808Z,2.32
2022-11-26T02:39:44.194Z,2.13
2022-11-26T02:42:10.579Z,2.04
2022-11-26T02:44:37.233Z,2.11
2022-11-26T02:47:03.746Z,2.25
2022-11-26T02:49:30.113Z,2.18
2022-11-26T02:51:56.449Z,2.39
2022-11-26T02:54:22.774Z,2.50
2022-11-26T02:56:49.137Z,2.35
2022-11-26T02:59:15.461Z,2.24
2022-11-26T03:01:41.827Z,2.28
2022-11-26T03:04:08.197Z,2.22
2022-11-26T03:06:34.583Z,2.13
2022-11-26T03:09:00.964Z,2.47
2022-11-26T03:11:27.332Z,2.55
2022-11-26T03:13:53.761Z,2.64
2022-11-26T03:16:20.220Z,2.79
2022-11-26T03:18:46.591Z,2.64
2022-11-26T03:21:12.925Z,2.45
2022-11-26T03:23:39.287Z,2.47
2022-11-26T03:26:05.613Z,2.48
2022-11-26T03:28:31.972Z,2.58
2022-11-26T03:30:58.307Z,2.11
2022-11-26T03:33:24.625Z,2.39
2022-11-26T03:35:50.942Z,2.30
2022-11-26T03:38:17.316Z,2.26
2022-11-26T03:40:43.665Z,2.14
2022-11-26T03:43:10.026Z,2.20
2022-11-26T03:45:36.444Z,2.46
2022-11-26T03:48:02.826Z,2.23
2022-11-26T03:50:29.197Z,2.24
2022-11-26T03:52:55.531Z,2.46
2022-11-26T03:55:21.860Z,2.20
2022-11-26T03:57:48.188Z,2.22
2022-11-26T04:00:14.522Z,2.10
2022-11-26T04:02:40.873Z,2.08
2022-11-26T04:05:07.316Z,2.08
2022-11-26T04:07:33.690Z,2.31
2022-11-26T04:10:00.097Z,2.15
2022-11-26T04:12:26.473Z,2.06
2022-11-26T04:14:52.849Z,2.14
2022-11-26T04:17:19.183Z,2.29
2022-11-26T04:19:45.527Z,2.50
2022-11-26T04:22:11.893Z,2.31
2022-11-26T04:24:38.440Z,2.26
2022-11-26T04:27:04.892Z,2.18
2022-11-26T04:29:31.261Z,2.21
2022-11-26T04:31:57.706Z,2.17
2022-11-26T04:34:24.108Z,1.81
2022-11-26T04:36:50.438Z,2.08
2022-11-26T04:39:16.795Z,1.94
2022-11-26T04:41:43.187Z,1.84
2022-11-26T04:44:09.512Z,1.75
2022-11-26T04:46:35.853Z,1.77
2022-11-26T04:49:02.182Z,1.83
2022-11-26T04:51:28.507Z,1.76
2022-11-26T04:53:55.950Z,1.62
2022-11-26T04:56:22.397Z,1.73
2022-11-26T04:58:48.786Z,1.87
2022-11-26T05:01:15.179Z,1.63
2022-11-26T05:03:41.576Z,1.58
2022-11-26T05:06:07.909Z,1.64
2022-11-26T05:08:34.275Z,1.66
2022-11-26T05:11:00.611Z,1.82
2022-11-26T05:13:26.938Z,2.02
2022-11-26T05:15:53.304Z,1.87
2022-11-26T05:18:19.681Z,1.77
2022-11-26T05:20:46.052Z,1.48
2022-11-26T05:23:12.439Z,1.83
2022-11-26T05:25:38.813Z,2.30
2022-11-26T05:28:05.201Z,1.68
2022-11-26T05:30:31.521Z,1.60
2022-11-26T05:32:57.858Z,1.91
2022-11-26T05:35:24.221Z,1.87
2022-11-26T05:37:50.606Z,1.73
2022-11-26T05:40:17.016Z,1.59
2022-11-26T05:42:43.397Z,1.69
2022-11-26T05:45:09.729Z,1.63
2022-11-26T05:47:36.046Z,1.45
2022-11-26T05:50:02.398Z,1.58
2022-11-26T05:52:28.777Z,1.61
2022-11-26T05:54:55.105Z,1.54
2022-11-26T05:57:21.463Z,1.72
2022-11-26T05:59:47.790Z,2.00
2022-11-26T06:02:14.323Z,2.11
2022-11-26T06:04:41.008Z,2.08
2022-11-26T06:07:07.559Z,3.10
2022-11-26T06:09:33.878Z,1.62
2022-11-26T06:12:00.241Z,1.65
2022-11-26T06:14:26.577Z,1.61
2022-11-26T06:16:52.993Z,1.71
2022-11-26T06:19:19.369Z,1.99
2022-11-26T06:21:45.694Z,1.83
2022-11-26T06:24:12.014Z,1.81
2022-11-26T06:26:38.334Z,1.72
2022-11-26T06:29:04.710Z,2.30
2022-11-26T06:31:31.070Z,2.33
2022-11-26T06:33:57.483Z,3.63
2022-11-26T06:36:23.821Z,3.08
2022-11-26T06:38:50.195Z,2.79
2022-11-26T06:41:16.577Z,2.95
2022-11-26T06:43:42.960Z,2.50
2022-11-26T06:46:09.367Z,2.28
2022-11-26T06:48:35.765Z,2.39
2022-11-26T06:51:02.132Z,1.96
2022-11-26T06:53:28.465Z,1.63
2022-11-26T06:55:54.790Z,1.74
2022-11-26T06:58:21.161Z,1.79
2022-11-26T07:00:47.497Z,1.74
2022-11-26T07:03:13.859Z,1.85
2022-11-26T07:05:40.193Z,1.74
2022-11-26T07:08:06.549Z,1.86
2022-11-26T07:10:32.926Z,1.96
2022-11-26T07:12:59.311Z,2.34
2022-11-26T07:15:25.684Z,1.96
2022-11-26T07:17:52.051Z,2.02
2022-11-26T07:20:18.391Z,1.89
2022-11-26T07:22:44.758Z,2.09
2022-11-26T07:25:12.898Z,1.95
2022-11-26T07:27:39.526Z,1.92
2022-11-26T07:30:05.855Z,1.82
2022-11-26T07:32:32.178Z,1.84
2022-11-26T07:34:58.540Z,2.22
2022-11-26T07:37:24.913Z,2.16
2022-11-26T07:39:51.285Z,2.23
2022-11-26T07:42:17.662Z,2.50
2022-11-26T07:44:44.040Z,2.18
2022-11-26T07:47:10.417Z,2.43
2022-11-26T07:49:36.798Z,2.29
2022-11-26T07:52:03.184Z,2.48
2022-11-26T07:54:29.551Z,2.35
2022-11-26T07:56:55.890Z,2.75
2022-11-26T07:59:22.257Z,2.49
2022-11-26T08:01:48.776Z,2.52
2022-11-26T08:04:15.169Z,2.73
2022-11-26T08:06:41.491Z,3.80
2022-11-26T08:09:07.875Z,3.48
2022-11-26T08:11:34.223Z,2.63
2022-11-26T08:14:00.554Z,2.67
2022-11-26T08:16:28.828Z,2.84
2022-11-26T08:18:55.675Z,2.89
2022-11-26T08:21:22.003Z,3.26
2022-11-26T08:23:48.376Z,3.13
2022-11-26T08:26:24.018Z,3.69
2022-11-26T08:28:54.245Z,3.37
2022-11-26T08:31:20.858Z,3.86
2022-11-26T08:33:47.261Z,4.17
2022-11-26T08:36:13.633Z,3.91
2022-11-26T08:38:40.009Z,4.26
2022-11-26T08:41:06.378Z,4.09
2022-11-26T08:43:58.733Z,4.29
2022-11-26T08:46:19.182Z,4.36
2022-11-26T08:48:45.518Z,4.53
2022-11-26T08:51:11.893Z,4.64
2022-11-26T08:53:38.265Z,5.04
2022-11-26T08:56:04.639Z,5.13
2022-11-26T08:58:30.962Z,5.45
2022-11-26T09:00:57.403Z,6.26
2022-11-26T09:03:23.766Z,5.98
2022-11-26T09:05:50.141Z,5.87
2022-11-26T09:08:16.512Z,5.93
2022-11-26T09:10:42.885Z,5.28
2022-11-26T09:13:09.266Z,5.45
2022-11-26T09:15:35.642Z,5.40
2022-11-26T09:18:01.967Z,5.20
2022-11-26T09:20:28.332Z,4.58
2022-11-26T09:22:54.653Z,4.82
2022-11-26T09:25:21.010Z,4.47
2022-11-26T09:27:47.345Z,4.17
2022-11-26T09:30:13.736Z,4.84
2022-11-26T09:32:40.114Z,5.20
2022-11-26T09:35:06.493Z,5.65
2022-11-26T09:37:32.827Z,6.28
2022-11-26T09:39:59.152Z,6.40
2022-11-26T09:42:25.511Z,6.64
2022-11-26T09:44:51.847Z,6.18
2022-11-26T09:47:18.200Z,5.85
2022-11-26T09:49:44.581Z,5.96
2022-11-26T09:52:10.928Z,5.31
2022-11-26T09:54:37.438Z,4.82
2022-11-26T09:57:03.951Z,5.14
2022-11-26T09:59:30.321Z,5.10
2022-11-26T10:01:56.688Z,5.12
2022-11-26T10:04:23.016Z,4.51
2022-11-26T10:06:49.374Z,4.59
2022-11-26T10:09:15.747Z,4.19
2022-11-26T10:11:42.130Z,4.33
2022-11-26T10:14:08.466Z,4.18
2022-11-26T10:16:34.867Z,4.22
2022-11-26T10:19:01.296Z,4.25
2022-11-26T10:21:56.732Z,4.12
2022-11-26T10:24:13.987Z,3.94
2022-11-26T10:26:40.319Z,3.77
2022-11-26T10:29:06.661Z,3.99
2022-11-26T10:31:33.015Z,3.96
2022-11-26T10:33:59.426Z,3.56
2022-11-26T10:36:25.782Z,3.69
2022-11-26T10:38:52.156Z,3.55
2022-11-26T10:41:18.524Z,3.38
2022-11-26T10:43:44.867Z,3.52
2022-11-26T10:46:11.260Z,3.47
2022-11-26T10:48:37.660Z,3.46
2022-11-26T10:51:04.042Z,3.82
2022-11-26T10:53:30.417Z,3.88
2022-11-26T10:55:56.793Z,3.61
2022-11-26T10:58:24.220Z,3.81
2022-11-26T11:00:50.594Z,3.75
2022-11-26T11:03:17.014Z,3.64
2022-11-26T11:05:43.343Z,3.66
2022-11-26T11:08:09.670Z,4.37
2022-11-26T11:10:36.040Z,4.15
2022-11-26T11:13:02.370Z,3.99
2022-11-26T11:15:28.709Z,3.58
2022-11-26T11:17:55.230Z,3.76
2022-11-26T11:20:21.565Z,3.69
2022-11-26T11:22:47.933Z,3.75
2022-11-26T11:25:14.333Z,3.95
2022-11-26T11:27:40.677Z,3.72
2022-11-26T11:30:07.038Z,3.99
2022-11-26T11:32:33.375Z,3.90
2022-11-26T11:34:59.746Z,4.20
2022-11-26T11:37:26.082Z,4.21
2022-11-26T11:39:52.399Z,4.11
2022-11-26T11:42:18.734Z,4.07
2022-11-26T11:44:45.067Z,3.98
2022-11-26T11:47:11.429Z,3.84
2022-11-26T11:49:37.770Z,4.03
2022-11-26T11:52:04.145Z,4.05
2022-11-26T11:54:30.518Z,3.85
2022-11-26T11:56:56.910Z,3.97
2022-11-26T11:59:23.237Z,3.86
2022-11-26T12:01:49.602Z,3.87
2022-11-26T12:04:19.567Z,4.10
2022-11-26T12:06:46.286Z,3.65
2022-11-26T12:09:12.623Z,3.56
2022-11-26T12:11:39.000Z,3.43
2022-11-26T12:14:05.371Z,3.64
2022-11-26T12:16:31.747Z,3.38
2022-11-26T12:18:58.103Z,3.40
2022-11-26T12:21:24.425Z,3.35
2022-11-26T12:23:50.801Z,3.08
2022-11-26T12:26:17.138Z,3.33
2022-11-26T12:28:48.263Z,3.41
2022-11-26T12:31:17.476Z,3.10
2022-11-26T12:33:43.871Z,2.85
2022-11-26T12:36:10.255Z,2.75
2022-11-26T12:38:36.638Z,2.84
2022-11-26T12:41:02.978Z,2.61
2022-11-26T12:43:29.347Z,2.56
2022-11-26T12:45:55.788Z,2.74
2022-11-26T12:48:22.192Z,2.71
2022-11-26T12:50:48.530Z,2.98
2022-11-26T12:53:14.846Z,2.45
2022-11-26T12:55:41.164Z,2.35
2022-11-26T12:58:07.495Z,2.67
2022-11-26T13:00:35.959Z,2.70
2022-11-26T13:03:02.795Z,2.59
2022-11-26T13:05:29.189Z,2.51
2022-11-26T13:07:55.648Z,2.64
2022-11-26T13:10:22.093Z,2.85
2022-11-26T13:12:48.477Z,2.37
2022-11-26T13:15:14.825Z,2.65
2022-11-26T13:17:41.152Z,2.25
2022-11-26T13:20:07.524Z,2.27
2022-11-26T13:22:33.909Z,2.36
2022-11-26T13:25:00.250Z,3.53
2022-11-26T13:27:26.630Z,4.13
2022-11-26T13:29:53.012Z,3.87
2022-11-26T13:32:19.401Z,3.80
2022-11-26T13:34:45.749Z,2.98
2022-11-26T13:37:12.112Z,2.31
2022-11-26T13:39:38.493Z,2.08
2022-11-26T13:42:04.877Z,2.38
2022-11-26T13:44:31.251Z,2.36
2022-11-26T13:46:57.620Z,2.20
2022-11-26T13:49:23.951Z,2.09
2022-11-26T13:51:50.384Z,2.36
2022-11-26T13:54:16.745Z,2.37
2022-11-26T13:56:43.072Z,2.06
2022-11-26T13:59:09.412Z,2.14
2022-11-26T14:01:35.807Z,2.23
2022-11-26T14:04:02.238Z,2.18
2022-11-26T14:06:28.573Z,2.20
2022-11-26T14:08:55.032Z,1.96
2022-11-26T14:11:22.603Z,2.10
2022-11-26T14:13:49.034Z,1.91
2022-11-26T14:16:15.432Z,1.87
2022-11-26T14:18:41.851Z,2.05
2022-11-26T14:21:08.186Z,1.97
2022-11-26T14:23:34.511Z,2.12
2022-11-26T14:26:00.834Z,1.90
2022-11-26T14:28:27.201Z,1.93
2022-11-26T14:30:53.572Z,2.28
2022-11-26T14:33:19.914Z,2.12
2022-11-26T14:35:46.280Z,2.05
2022-11-26T14:38:12.618Z,2.32
2022-11-26T14:40:38.979Z,2.04
2022-11-26T14:43:05.353Z,1.98
2022-11-26T14:45:31.777Z,2.17
2022-11-26T14:47:58.163Z,2.38
2022-11-26T14:50:24.533Z,2.08
2022-11-26T14:52:50.907Z,2.08
2022-11-26T14:55:17.304Z,2.17
2022-11-26T14:57:43.661Z,2.68
2022-11-26T15:00:10.042Z,2.83
2022-11-26T15:02:36.476Z,2.93
2022-11-26T15:05:02.897Z,2.68
2022-11-26T15:07:29.270Z,2.70
2022-11-26T15:09:55.666Z,2.76
2022-11-26T15:12:22.049Z,2.47
2022-11-26T15:14:48.432Z,2.57
2022-11-26T15:17:14.853Z,2.68
2022-11-26T15:19:41.223Z,2.71
2022-11-26T15:22:07.609Z,2.60
2022-11-26T15:24:33.995Z,2.56
2022-11-26T15:27:00.331Z,2.64
2022-11-26T15:29:26.706Z,2.94
2022-11-26T15:31:53.038Z,2.81
2022-11-26T15:34:19.413Z,3.26
2022-11-26T15:36:45.737Z,2.97
2022-11-26T15:39:12.062Z,2.73
2022-11-26T15:41:42.254Z,2.57
2022-11-26T15:44:09.041Z,2.85
2022-11-26T15:46:35.485Z,2.34
2022-11-26T15:49:01.876Z,2.63
2022-11-26T15:51:33.758Z,2.68
2022-11-26T15:54:01.476Z,2.62
2022-11-26T15:56:27.856Z,2.47
2022-11-26T15:58:54.229Z,2.51
2022-11-26T16:01:20.634Z,2.83
2022-11-26T16:03:47.044Z,2.65
2022-11-26T16:06:13.440Z,2.72
2022-11-26T16:08:39.828Z,3.23
2022-11-26T16:11:06.196Z,3.22
2022-11-26T16:13:32.525Z,2.88
2022-11-26T16:15:58.895Z,3.04
2022-11-26T16:18:25.241Z,2.57
2022-11-26T16:20:51.562Z,2.92
2022-11-26T16:23:17.894Z,2.54
2022-11-26T16:25:44.221Z,2.74
2022-11-26T16:28:10.554Z,2.35
2022-11-26T16:30:36.970Z,2.42
2022-11-26T16:33:03.381Z,2.41
2022-11-26T16:35:45.091Z,2.41
2022-11-26T16:38:12.262Z,2.40
2022-11-26T16:40:38.592Z,2.48
2022-11-26T16:43:04.964Z,2.58
2022-11-26T16:45:31.298Z,2.43
2022-11-26T16:47:57.664Z,2.30
2022-11-26T16:50:24.004Z,2.64
2022-11-26T16:52:50.344Z,2.48
2022-11-26T16:55:16.673Z,2.43
2022-11-26T16:57:43.049Z,2.39
2022-11-26T17:00:09.387Z,2.60
2022-11-26T17:02:35.827Z,2.71
2022-11-26T17:05:02.230Z,2.63
2022-11-26T17:07:28.594Z,2.67
2022-11-26T17:09:54.982Z,2.61
2022-11-26T17:12:21.363Z,2.84
2022-11-26T17:14:47.760Z,2.66
2022-11-26T17:17:14.220Z,2.93
2022-11-26T17:19:40.952Z,3.33
2022-11-26T17:22:07.611Z,3.30
2022-11-26T17:24:33.989Z,5.16
2022-11-26T17:27:00.368Z,5.01
2022-11-26T17:29:26.705Z,4.82
2022-11-26T17:31:53.026Z,6.15
2022-11-26T17:34:19.392Z,5.42
2022-11-26T17:36:45.727Z,6.04
2022-11-26T17:39:12.046Z,4.61
2022-11-26T17:41:38.381Z,4.32
2022-11-26T17:44:04.754Z,5.72
2022-11-26T17:46:35.737Z,5.09
2022-11-26T17:49:14.606Z,4.90
2022-11-26T17:51:40.972Z,5.14
2022-11-26T17:54:07.349Z,5.23
2022-11-26T17:56:33.687Z,4.82
2022-11-26T17:59:00.057Z,4.98
2022-11-26T18:01:26.448Z,4.30
2022-11-26T18:03:52.824Z,8.49
2022-11-26T18:06:19.165Z,4.57
2022-11-26T18:08:45.490Z,5.82
2022-11-26T18:11:11.814Z,10.38
2022-11-26T18:13:38.195Z,8.05
2022-11-26T18:16:04.585Z,4.28
2022-11-26T18:18:30.981Z,4.26
2022-11-26T18:20:57.303Z,4.81
2022-11-26T18:23:23.631Z,7.72
2022-11-26T18:25:49.997Z,7.23
2022-11-26T18:28:16.331Z,8.16
2022-11-26T18:30:42.723Z,6.24
2022-11-26T18:33:09.151Z,5.69
2022-11-26T18:35:35.521Z,5.73
2022-11-26T18:38:01.856Z,6.27
2022-11-26T18:40:28.221Z,4.93
2022-11-26T18:42:54.598Z,4.99
2022-11-26T18:45:20.948Z,6.34
2022-11-26T18:47:47.270Z,4.08
2022-11-26T18:50:13.599Z,4.31
2022-11-26T18:52:39.925Z,4.53
2022-11-26T18:55:06.294Z,4.19
2022-11-26T18:57:32.667Z,4.44
2022-11-26T18:59:59.095Z,4.38
2022-11-26T19:02:25.480Z,4.72
2022-11-26T19:04:51.930Z,4.46
2022-11-26T19:07:18.332Z,4.54
2022-11-26T19:09:44.714Z,4.44
2022-11-26T19:12:11.034Z,4.26
2022-11-26T19:14:37.363Z,4.42
2022-11-26T19:17:03.893Z,4.98
2022-11-26T19:19:30.353Z,4.47
2022-11-26T19:22:00.726Z,6.03
2022-11-26T19:24:27.832Z,5.50
2022-11-26T19:26:54.208Z,5.41
2022-11-26T19:29:20.587Z,5.52
2022-11-26T19:31:46.965Z,4.74
2022-11-26T19:34:13.286Z,4.80
2022-11-26T19:36:39.659Z,5.15
2022-11-26T19:39:06.050Z,5.33
2022-11-26T19:41:32.428Z,5.00
2022-11-26T19:43:58.928Z,5.54
2022-11-26T19:46:25.299Z,5.28
2022-11-26T19:48:51.680Z,4.99
2022-11-26T19:51:18.049Z,5.48
2022-11-26T19:53:44.427Z,5.01
2022-11-26T19:56:10.801Z,5.81
2022-11-26T19:58:37.180Z,6.52
2022-11-26T20:01:03.600Z,6.85
2022-11-26T20:03:34.245Z,8.18
2022-11-26T20:06:03.473Z,8.12
2022-11-26T20:08:29.843Z,8.73
2022-11-26T20:10:56.388Z,12.23
2022-11-26T20:13:22.723Z,8.92
2022-11-26T20:15:49.084Z,6.96
2022-11-26T20:18:15.458Z,6.08
2022-11-26T20:20:41.838Z,6.27
2022-11-26T20:23:08.213Z,7.11
2022-11-26T20:25:34.588Z,5.57
2022-11-26T20:28:00.971Z,5.01
2022-11-26T20:30:27.330Z,5.11
2022-11-26T20:32:53.689Z,4.68
2022-11-26T20:35:20.058Z,4.56
2022-11-26T20:37:46.392Z,4.41
2022-11-26T20:40:12.760Z,5.00
2022-11-26T20:42:39.155Z,5.66
2022-11-26T20:45:05.495Z,6.30
2022-11-26T20:47:31.818Z,5.76
2022-11-26T20:49:58.185Z,5.09
2022-11-26T20:52:24.568Z,5.30
2022-11-26T20:54:53.885Z,5.69
2022-11-26T20:57:20.530Z,6.54
2022-11-26T20:59:46.863Z,7.20
2022-11-26T21:02:13.196Z,10.01
2022-11-26T21:04:39.577Z,8.18
2022-11-26T21:07:05.952Z,7.88
2022-11-26T21:09:32.299Z,10.33
2022-11-26T21:11:58.626Z,7.39
2022-11-26T21:14:25.070Z,7.80
2022-11-26T21:16:51.498Z,7.07
2022-11-26T21:19:18.019Z,7.43
2022-11-26T21:21:44.401Z,7.20
2022-11-26T21:24:10.788Z,6.62
2022-11-26T21:26:37.165Z,6.43
2022-11-26T21:29:03.552Z,6.25
2022-11-26T21:31:29.950Z,6.61
2022-11-26T21:33:56.338Z,6.38
2022-11-26T21:36:22.681Z,6.57
2022-11-26T21:38:49.047Z,6.44
2022-11-26T21:41:15.379Z,6.45
2022-11-26T21:43:41.727Z,6.60
2022-11-26T21:46:08.105Z,7.51
2022-11-26T21:48:34.509Z,7.23
2022-11-26T21:51:00.841Z,7.39
2022-11-26T21:53:27.164Z,7.83
2022-11-26T21:55:53.550Z,7.71
2022-11-26T21:58:19.888Z,7.06
2022-11-26T22:00:46.208Z,6.74
2022-11-26T22:03:12.568Z,6.60
2022-11-26T22:05:38.898Z,6.93
2022-11-26T22:08:05.493Z,7.00
2022-11-26T22:10:35.940Z,7.58
2022-11-26T22:13:02.579Z,7.96
2022-11-26T22:15:28.916Z,7.80
2022-11-26T22:17:55.286Z,7.85
2022-11-26T22:20:21.677Z,8.60
2022-11-26T22:22:48.049Z,9.21
2022-11-26T22:25:14.388Z,8.51
2022-11-26T22:27:40.791Z,8.86
2022-11-26T22:30:07.122Z,8.95
2022-11-26T22:32:33.445Z,8.63
2022-11-26T22:34:59.826Z,9.08
2022-11-26T22:37:26.158Z,8.74
2022-11-26T22:39:54.006Z,9.14
2022-11-26T22:42:20.480Z,8.58
2022-11-26T22:44:46.866Z,8.59
2022-11-26T22:47:13.252Z,7.67
2022-11-26T22:49:39.846Z,7.90
2022-11-26T22:52:06.520Z,7.77
2022-11-26T22:54:32.893Z,7.65
2022-11-26T22:56:59.222Z,7.43
2022-11-26T22:59:25.598Z,7.33
2022-11-26T23:01:51.982Z,7.10
2022-11-26T23:04:18.317Z,7.31
2022-11-26T23:06:44.656Z,7.12
2022-11-26T23:09:11.030Z,7.79
2022-11-26T23:11:37.364Z,7.97
2022-11-26T23:14:03.683Z,7.41
2022-11-26T23:16:30.049Z,8.25
2022-11-26T23:18:56.465Z,9.58
2022-11-26T23:21:22.811Z,8.75
2022-11-26T23:23:49.168Z,9.24
2022-11-26T23:26:15.498Z,8.14
2022-11-26T23:28:41.827Z,8.86
2022-11-26T23:31:08.299Z,10.14
2022-11-26T23:33:34.675Z,10.05
2022-11-26T23:36:01.002Z,8.50
2022-11-26T23:38:27.353Z,7.68
2022-11-26T23:40:53.723Z,7.75
2022-11-26T23:43:20.108Z,7.46
2022-11-26T23:45:46.507Z,7.36
2022-11-26T23:48:12.873Z,7.00
2022-11-26T23:50:39.193Z,7.36
2022-11-26T23:53:05.609Z,7.14
2022-11-26T23:55:31.942Z,7.62
2022-11-26T23:57:58.321Z,7.60
